sensor_id;sensor_type;location;lat;lon;timestamp;pressure;altitude;pressure_sealevel;temperature;humidity
65534;BME280;53640;55.838;37.184;2023-02-14T00:01:11;97939.75;;;-1.69;64.51
65534;BME280;53640;55.838;37.184;2023-02-14T00:03:50;97854.66;;;-2.22;64.92
65534;BME280;53640;55.838;37.184;2023-02-14T00:06:19;98034.66;;;-1.17;64.57
65534;BME280;53640;55.838;37.184;2023-02-14T00:08:49;98024.69;;;-1.15;64.92
65534;BME280;53640;55.838;37.184;2023-02-14T00:11:27;97943.25;;;-1.69;64.86
65534;BME280;53640;55.838;37.184;2023-02-14T00:14:00;97959.94;;;-1.60;64.78
65534;BME280;53640;55.838;37.184;2023-02-14T00:17:00;97940.13;;;-1.80;64.77
65534;BME280;53640;55.838;37.184;2023-02-14T00:19:30;97966.25;;;-1.69;65.35
65534;BME280;53640;55.838;37.184;2023-02-14T00:21:56;97878.84;;;-2.17;64.87
65534;BME280;53640;55.838;37.184;2023-02-14T00:24:25;97983.56;;;-1.50;64.79
65534;BME280;53640;55.838;37.184;2023-02-14T00:26:52;97988.06;;;-1.51;65.05
65534;BME280;53640;55.838;37.184;2023-02-14T00:29:24;97944.13;;;-1.76;64.48
65534;BME280;53640;55.838;37.184;2023-02-14T00:32:03;97929.41;;;-1.87;64.87
65534;BME280;53640;55.838;37.184;2023-02-14T00:34:39;97980.00;;;-1.57;64.66
65534;BME280;53640;55.838;37.184;2023-02-14T00:37:10;97937.63;;;-1.74;64.62
65534;BME280;53640;55.838;37.184;2023-02-14T00:39:38;97971.56;;;-1.61;64.69
65534;BME280;53640;55.838;37.184;2023-02-14T00:42:10;97985.63;;;-1.61;64.87
65534;BME280;53640;55.838;37.184;2023-02-14T00:44:42;97959.56;;;-1.80;64.90
65534;BME280;53640;55.838;37.184;2023-02-14T00:47:24;97978.91;;;-1.71;65.05
65534;BME280;53640;55.838;37.184;2023-02-14T00:49:53;97893.16;;;-2.34;65.11
65534;BME280;53640;55.838;37.184;2023-02-14T00:52:34;97949.66;;;-1.94;65.38
65534;BME280;53640;55.838;37.184;2023-02-14T00:55:15;97997.56;;;-1.56;65.14
65534;BME280;53640;55.838;37.184;2023-02-14T00:57:56;97914.78;;;-2.14;65.02
65534;BME280;53640;55.838;37.184;2023-02-14T01:00:25;98062.06;;;-1.25;64.89
65534;BME280;53640;55.838;37.184;2023-02-14T01:02:55;97979.22;;;-1.74;64.87
65534;BME280;53640;55.838;37.184;2023-02-14T01:05:57;97989.50;;;-1.71;64.86
65534;BME280;53640;55.838;37.184;2023-02-14T01:08:32;97890.66;;;-2.27;64.75
65534;BME280;53640;55.838;37.184;2023-02-14T01:11:14;97971.13;;;-1.81;64.73
65534;BME280;53640;55.838;37.184;2023-02-14T01:14:07;97952.94;;;-1.84;65.01
65534;BME280;53640;55.838;37.184;2023-02-14T01:16:52;98051.28;;;-1.23;65.07
65534;BME280;53640;55.838;37.184;2023-02-14T01:19:25;97994.91;;;-1.56;64.92
65534;BME280;53640;55.838;37.184;2023-02-14T01:21:52;97891.91;;;-2.15;64.74
65534;BME280;53640;55.838;37.184;2023-02-14T01:24:25;97984.63;;;-1.60;64.76
65534;BME280;53640;55.838;37.184;2023-02-14T01:26:52;97892.97;;;-2.24;64.74
65534;BME280;53640;55.838;37.184;2023-02-14T01:29:37;97904.66;;;-2.11;64.80
65534;BME280;53640;55.838;37.184;2023-02-14T01:32:07;98061.44;;;-1.27;65.14
65534;BME280;53640;55.838;37.184;2023-02-14T01:34:38;97938.06;;;-1.93;65.12
65534;BME280;53640;55.838;37.184;2023-02-14T01:37:34;98025.06;;;-1.49;64.92
65534;BME280;53640;55.838;37.184;2023-02-14T01:40:13;97957.44;;;-1.93;65.03
65534;BME280;53640;55.838;37.184;2023-02-14T01:42:53;98024.88;;;-1.48;64.79
65534;BME280;53640;55.838;37.184;2023-02-14T01:45:27;97971.75;;;-1.71;65.06
65534;BME280;53640;55.838;37.184;2023-02-14T01:47:58;97909.59;;;-2.08;64.89
65534;BME280;53640;55.838;37.184;2023-02-14T01:50:35;98004.16;;;-1.52;64.82
65534;BME280;53640;55.838;37.184;2023-02-14T01:53:23;97895.56;;;-2.16;64.53
65534;BME280;53640;55.838;37.184;2023-02-14T01:56:03;98080.25;;;-1.14;64.82
65534;BME280;53640;55.838;37.184;2023-02-14T01:58:42;97927.19;;;-2.06;64.81
65534;BME280;53640;55.838;37.184;2023-02-14T02:01:42;98001.22;;;-1.57;64.92
65534;BME280;53640;55.838;37.184;2023-02-14T02:04:44;97891.69;;;-2.37;65.79
65534;BME280;53640;55.838;37.184;2023-02-14T02:07:24;98001.91;;;-1.64;65.60
65534;BME280;53640;55.838;37.184;2023-02-14T02:10:05;98006.88;;;-1.61;65.80
65534;BME280;53640;55.838;37.184;2023-02-14T02:13:19;97999.16;;;-1.78;66.25
65534;BME280;53640;55.838;37.184;2023-02-14T02:16:03;97893.00;;;-2.41;66.71
65534;BME280;53640;55.838;37.184;2023-02-14T02:19:58;98088.31;;;-1.30;66.75
65534;BME280;53640;55.838;37.184;2023-02-14T02:22:11;98008.78;;;-1.86;66.91
65534;BME280;53640;55.838;37.184;2023-02-14T02:28:48;98100.09;;;-1.32;67.17
65534;BME280;53640;55.838;37.184;2023-02-14T02:31:31;98099.06;;;-1.23;66.97
65534;BME280;53640;55.838;37.184;2023-02-14T02:37:29;98094.84;;;-1.10;66.80
65534;BME280;53640;55.838;37.184;2023-02-14T02:40:31;98087.88;;;-1.11;66.66
65534;BME280;53640;55.838;37.184;2023-02-14T02:46:48;97951.88;;;-2.06;66.20
65534;BME280;53640;55.838;37.184;2023-02-14T02:49:46;98095.03;;;-1.11;66.38
65534;BME280;53640;55.838;37.184;2023-02-14T02:53:03;97914.03;;;-2.31;66.21
65534;BME280;53640;55.838;37.184;2023-02-14T02:55:44;97950.09;;;-2.14;66.34
65534;BME280;53640;55.838;37.184;2023-02-14T03:01:50;97927.56;;;-2.26;66.21
65534;BME280;53640;55.838;37.184;2023-02-14T03:05:03;98009.56;;;-1.69;66.16
65534;BME280;53640;55.838;37.184;2023-02-14T03:08:22;98105.16;;;-1.15;66.03
65534;BME280;53640;55.838;37.184;2023-02-14T03:11:04;97990.94;;;-2.00;66.43
65534;BME280;53640;55.838;37.184;2023-02-14T03:13:53;98114.63;;;-1.20;66.45
65534;BME280;53640;55.838;37.184;2023-02-14T03:16:52;98108.81;;;-1.16;66.30
65534;BME280;53640;55.838;37.184;2023-02-14T03:24:02;98097.41;;;-1.24;66.72
65534;BME280;53640;55.838;37.184;2023-02-14T03:30:08;98114.28;;;-1.17;66.60
65534;BME280;53640;55.838;37.184;2023-02-14T03:36:14;98107.81;;;-1.15;66.59
65534;BME280;53640;55.838;37.184;2023-02-14T03:39:15;98034.38;;;-1.62;66.38
65534;BME280;53640;55.838;37.184;2023-02-14T03:41:58;97985.47;;;-1.98;66.02
65534;BME280;53640;55.838;37.184;2023-02-14T03:44:42;98014.19;;;-1.71;65.87
65534;BME280;53640;55.838;37.184;2023-02-14T03:47:13;98110.47;;;-1.15;66.14
65534;BME280;53640;55.838;37.184;2023-02-14T03:49:55;98020.84;;;-1.75;65.72
65534;BME280;53640;55.838;37.184;2023-02-14T03:52:39;98109.47;;;-1.14;65.69
65534;BME280;53640;55.838;37.184;2023-02-14T03:55:10;97940.00;;;-2.26;65.39
65534;BME280;53640;55.838;37.184;2023-02-14T03:57:52;97941.50;;;-2.24;65.54
65534;BME280;53640;55.838;37.184;2023-02-14T04:00:22;98025.47;;;-1.69;65.30
65534;BME280;53640;55.838;37.184;2023-02-14T04:03:00;98062.53;;;-1.52;65.54
65534;BME280;53640;55.838;37.184;2023-02-14T04:05:30;97995.53;;;-1.86;65.49
65534;BME280;53640;55.838;37.184;2023-02-14T04:07:57;97984.47;;;-1.97;65.16
65534;BME280;53640;55.838;37.184;2023-02-14T04:10:25;98161.31;;;-0.95;65.62
65534;BME280;53640;55.838;37.184;2023-02-14T04:12:51;98152.91;;;-1.06;65.40
65534;BME280;53640;55.838;37.184;2023-02-14T04:15:18;98136.31;;;-1.00;65.25
65534;BME280;53640;55.838;37.184;2023-02-14T04:17:44;98172.13;;;-0.96;64.99
65534;BME280;53640;55.838;37.184;2023-02-14T04:20:29;98156.25;;;-1.04;65.11
65534;BME280;53640;55.838;37.184;2023-02-14T04:22:57;98161.50;;;-0.96;64.90
65534;BME280;53640;55.838;37.184;2023-02-14T04:25:23;98163.00;;;-1.02;65.38
65534;BME280;53640;55.838;37.184;2023-02-14T04:27:50;98169.53;;;-1.04;65.52
65534;BME280;53640;55.838;37.184;2023-02-14T04:30:17;98122.03;;;-1.39;65.78
65534;BME280;53640;55.838;37.184;2023-02-14T04:32:46;98118.69;;;-1.32;65.78
65534;BME280;53640;55.838;37.184;2023-02-14T04:35:13;98152.97;;;-1.15;65.70
65534;BME280;53640;55.838;37.184;2023-02-14T04:37:40;98171.16;;;-1.03;65.74
65534;BME280;53640;55.838;37.184;2023-02-14T04:40:07;98173.88;;;-1.12;65.44
65534;BME280;53640;55.838;37.184;2023-02-14T04:42:34;98188.59;;;-1.09;65.43
65534;BME280;53640;55.838;37.184;2023-02-14T04:45:00;98177.03;;;-1.16;65.58
65534;BME280;53640;55.838;37.184;2023-02-14T04:47:27;98197.72;;;-1.03;65.88
65534;BME280;53640;55.838;37.184;2023-02-14T04:49:58;98162.31;;;-1.27;65.73
65534;BME280;53640;55.838;37.184;2023-02-14T04:52:25;98155.31;;;-1.28;65.93
65534;BME280;53640;55.838;37.184;2023-02-14T04:54:53;98132.16;;;-1.42;65.90
65534;BME280;53640;55.838;37.184;2023-02-14T04:57:20;98206.66;;;-0.96;65.77
65534;BME280;53640;55.838;37.184;2023-02-14T04:59:47;98108.47;;;-1.52;66.02
65534;BME280;53640;55.838;37.184;2023-02-14T05:02:15;98147.88;;;-1.32;65.97
65534;BME280;53640;55.838;37.184;2023-02-14T05:04:42;98096.59;;;-1.64;65.85
65534;BME280;53640;55.838;37.184;2023-02-14T05:07:12;98135.50;;;-1.48;65.65
65534;BME280;53640;55.838;37.184;2023-02-14T05:09:39;98055.69;;;-1.86;65.83
65534;BME280;53640;55.838;37.184;2023-02-14T05:12:06;98119.75;;;-1.50;65.80
65534;BME280;53640;55.838;37.184;2023-02-14T05:14:34;98115.75;;;-1.46;65.72
65534;BME280;53640;55.838;37.184;2023-02-14T05:17:00;98163.56;;;-1.15;65.54
65534;BME280;53640;55.838;37.184;2023-02-14T05:19:27;98220.38;;;-0.84;65.63
65534;BME280;53640;55.838;37.184;2023-02-14T05:21:54;98233.63;;;-0.76;65.90
65534;BME280;53640;55.838;37.184;2023-02-14T05:24:21;98224.34;;;-0.80;65.58
65534;BME280;53640;55.838;37.184;2023-02-14T05:26:48;98221.50;;;-0.79;65.65
65534;BME280;53640;55.838;37.184;2023-02-14T05:29:16;98236.47;;;-0.78;65.72
65534;BME280;53640;55.838;37.184;2023-02-14T05:31:42;98226.31;;;-0.74;65.07
65534;BME280;53640;55.838;37.184;2023-02-14T05:34:09;98241.06;;;-0.72;64.97
65534;BME280;53640;55.838;37.184;2023-02-14T05:36:36;98227.53;;;-0.85;64.18
65534;BME280;53640;55.838;37.184;2023-02-14T05:39:04;98249.56;;;-0.76;64.85
65534;BME280;53640;55.838;37.184;2023-02-14T05:41:32;98222.91;;;-0.91;64.95
65534;BME280;53640;55.838;37.184;2023-02-14T05:43:59;98244.25;;;-0.76;65.39
65534;BME280;53640;55.838;37.184;2023-02-14T05:46:26;98226.19;;;-0.81;64.97
65534;BME280;53640;55.838;37.184;2023-02-14T05:48:52;98206.00;;;-0.98;64.76
65534;BME280;53640;55.838;37.184;2023-02-14T05:51:19;98245.91;;;-0.75;65.05
65534;BME280;53640;55.838;37.184;2023-02-14T05:53:46;98236.75;;;-0.73;64.61
65534;BME280;53640;55.838;37.184;2023-02-14T05:56:14;98223.53;;;-0.81;64.31
65534;BME280;53640;55.838;37.184;2023-02-14T05:58:40;98178.84;;;-1.08;64.05
65534;BME280;53640;55.838;37.184;2023-02-14T06:01:07;98211.47;;;-1.00;64.01
65534;BME280;53640;55.838;37.184;2023-02-14T06:03:33;98230.53;;;-0.88;64.71
65534;BME280;53640;55.838;37.184;2023-02-14T06:05:59;98243.44;;;-0.77;64.65
65534;BME280;53640;55.838;37.184;2023-02-14T06:08:27;98230.34;;;-0.78;64.97
65534;BME280;53640;55.838;37.184;2023-02-14T06:10:54;98249.03;;;-0.64;64.95
65534;BME280;53640;55.838;37.184;2023-02-14T06:13:20;98089.13;;;-1.61;64.72
65534;BME280;53640;55.838;37.184;2023-02-14T06:15:47;98156.63;;;-1.16;64.49
65534;BME280;53640;55.838;37.184;2023-02-14T06:18:13;98126.66;;;-1.32;64.40
65534;BME280;53640;55.838;37.184;2023-02-14T06:20:40;98120.53;;;-1.41;64.33
65534;BME280;53640;55.838;37.184;2023-02-14T06:23:06;98123.69;;;-1.38;64.29
65534;BME280;53640;55.838;37.184;2023-02-14T06:25:35;98090.47;;;-1.65;64.19
65534;BME280;53640;55.838;37.184;2023-02-14T06:28:02;98226.31;;;-0.74;64.17
65534;BME280;53640;55.838;37.184;2023-02-14T06:30:30;98235.13;;;-0.74;63.62
65534;BME280;53640;55.838;37.184;2023-02-14T06:32:56;98243.09;;;-0.74;63.94
65534;BME280;53640;55.838;37.184;2023-02-14T06:35:23;98228.50;;;-0.78;63.63
65534;BME280;53640;55.838;37.184;2023-02-14T06:37:49;98261.53;;;-0.80;64.07
65534;BME280;53640;55.838;37.184;2023-02-14T06:40:16;98226.38;;;-0.91;64.73
65534;BME280;53640;55.838;37.184;2023-02-14T06:42:44;98267.25;;;-0.61;64.59
65534;BME280;53640;55.838;37.184;2023-02-14T06:45:11;98270.94;;;-0.62;64.31
65534;BME280;53640;55.838;37.184;2023-02-14T06:47:37;98272.09;;;-0.56;64.71
65534;BME280;53640;55.838;37.184;2023-02-14T06:50:04;98262.63;;;-0.58;64.53
65534;BME280;53640;55.838;37.184;2023-02-14T06:52:32;98248.84;;;-0.62;64.09
65534;BME280;53640;55.838;37.184;2023-02-14T06:54:59;98283.63;;;-0.41;64.35
65534;BME280;53640;55.838;37.184;2023-02-14T06:57:25;98248.66;;;-0.61;63.65
65534;BME280;53640;55.838;37.184;2023-02-14T06:59:52;98274.47;;;-0.38;64.14
65534;BME280;53640;55.838;37.184;2023-02-14T07:02:18;98290.22;;;-0.28;63.87
65534;BME280;53640;55.838;37.184;2023-02-14T07:04:44;98306.94;;;-0.20;63.95
65534;BME280;53640;55.838;37.184;2023-02-14T07:07:11;98292.13;;;-0.14;63.33
65534;BME280;53640;55.838;37.184;2023-02-14T07:09:37;98290.94;;;-0.12;63.45
65534;BME280;53640;55.838;37.184;2023-02-14T07:12:04;98307.91;;;-0.13;62.40
65534;BME280;53640;55.838;37.184;2023-02-14T07:14:30;98230.72;;;-0.58;62.69
65534;BME280;53640;55.838;37.184;2023-02-14T07:16:57;98295.66;;;-0.22;62.95
65534;BME280;53640;55.838;37.184;2023-02-14T07:19:24;98291.69;;;-0.26;62.84
65534;BME280;53640;55.838;37.184;2023-02-14T07:21:50;98316.41;;;-0.17;63.18
65534;BME280;53640;55.838;37.184;2023-02-14T07:24:16;98277.59;;;-0.34;63.22
65534;BME280;53640;55.838;37.184;2023-02-14T07:26:43;98273.97;;;-0.42;62.84
65534;BME280;53640;55.838;37.184;2023-02-14T07:29:09;98236.72;;;-0.65;62.99
65534;BME280;53640;55.838;37.184;2023-02-14T07:31:36;98269.88;;;-0.44;62.85
65534;BME280;53640;55.838;37.184;2023-02-14T07:34:03;98320.66;;;-0.08;63.07
65534;BME280;53640;55.838;37.184;2023-02-14T07:36:29;98324.53;;;-0.10;62.50
65534;BME280;53640;55.838;37.184;2023-02-14T07:38:56;98331.97;;;-0.06;62.80
65534;BME280;53640;55.838;37.184;2023-02-14T07:41:23;98291.03;;;-0.28;62.51
65534;BME280;53640;55.838;37.184;2023-02-14T07:43:49;98329.78;;;-0.02;62.59
65534;BME280;53640;55.838;37.184;2023-02-14T07:46:15;98315.41;;;-0.16;62.42
65534;BME280;53640;55.838;37.184;2023-02-14T07:48:43;98302.16;;;-0.24;62.43
65534;BME280;53640;55.838;37.184;2023-02-14T07:51:10;98294.50;;;-0.27;62.40
65534;BME280;53640;55.838;37.184;2023-02-14T07:53:36;98341.53;;;0.03;62.61
65534;BME280;53640;55.838;37.184;2023-02-14T07:56:05;98269.19;;;-0.46;60.26
65534;BME280;53640;55.838;37.184;2023-02-14T07:58:32;98323.22;;;-0.15;60.35
65534;BME280;53640;55.838;37.184;2023-02-14T08:00:58;98346.22;;;0.01;60.33
65534;BME280;53640;55.838;37.184;2023-02-14T08:03:25;98341.88;;;0.08;61.56
65534;BME280;53640;55.838;37.184;2023-02-14T08:05:51;98335.00;;;0.14;60.89
65534;BME280;53640;55.838;37.184;2023-02-14T08:08:26;98312.69;;;-0.08;60.06
65534;BME280;53640;55.838;37.184;2023-02-14T08:10:53;98316.16;;;0.01;59.75
65534;BME280;53640;55.838;37.184;2023-02-14T08:13:20;98342.63;;;0.17;60.27
65534;BME280;53640;55.838;37.184;2023-02-14T08:15:47;98304.00;;;-0.02;60.13
65534;BME280;53640;55.838;37.184;2023-02-14T08:18:38;98312.13;;;0.05;59.98
65534;BME280;53640;55.838;37.184;2023-02-14T08:21:07;98359.69;;;0.31;60.28
65534;BME280;53640;55.838;37.184;2023-02-14T08:23:36;98359.31;;;0.34;59.70
65534;BME280;53640;55.838;37.184;2023-02-14T08:26:03;98383.41;;;0.41;58.38
65534;BME280;53640;55.838;37.184;2023-02-14T08:28:30;98402.56;;;0.36;59.07
65534;BME280;53640;55.838;37.184;2023-02-14T08:30:58;98374.56;;;0.17;59.07
65534;BME280;53640;55.838;37.184;2023-02-14T08:33:27;98408.78;;;0.28;59.73
65534;BME280;53640;55.838;37.184;2023-02-14T08:35:53;98383.09;;;0.13;59.81
65534;BME280;53640;55.838;37.184;2023-02-14T08:38:20;98391.72;;;0.15;59.79
65534;BME280;53640;55.838;37.184;2023-02-14T08:40:46;98396.19;;;0.14;59.92
65534;BME280;53640;55.838;37.184;2023-02-14T08:43:13;98389.31;;;-0.03;60.17
65534;BME280;53640;55.838;37.184;2023-02-14T08:45:40;98416.03;;;0.11;60.26
65534;BME280;53640;55.838;37.184;2023-02-14T08:48:10;98436.78;;;0.16;60.06
65534;BME280;53640;55.838;37.184;2023-02-14T08:50:37;98438.13;;;0.12;60.44
65534;BME280;53640;55.838;37.184;2023-02-14T08:53:09;98441.13;;;0.09;60.73
65534;BME280;53640;55.838;37.184;2023-02-14T08:55:37;98407.97;;;-0.12;61.17
65534;BME280;53640;55.838;37.184;2023-02-14T08:58:04;98397.69;;;-0.15;60.57
65534;BME280;53640;55.838;37.184;2023-02-14T09:00:50;98448.41;;;0.15;61.31
65534;BME280;53640;55.838;37.184;2023-02-14T09:03:39;98450.91;;;0.17;60.56
65534;BME280;53640;55.838;37.184;2023-02-14T09:09:02;98408.81;;;-0.11;61.29
65534;BME280;53640;55.838;37.184;2023-02-14T09:11:32;98441.13;;;0.09;60.57
65534;BME280;53640;55.838;37.184;2023-02-14T09:17:03;98464.47;;;0.30;60.08
65534;BME280;53640;55.838;37.184;2023-02-14T09:19:48;98406.75;;;-0.01;61.10
65534;BME280;53640;55.838;37.184;2023-02-14T09:22:27;98423.16;;;0.11;59.38
65534;BME280;53640;55.838;37.184;2023-02-14T09:24:53;98397.94;;;-0.01;59.16
65534;BME280;53640;55.838;37.184;2023-02-14T09:27:29;98471.28;;;0.32;59.59
65534;BME280;53640;55.838;37.184;2023-02-14T09:29:55;98411.25;;;-0.01;58.35
65534;BME280;53640;55.838;37.184;2023-02-14T09:32:25;98451.22;;;0.22;59.86
65534;BME280;53640;55.838;37.184;2023-02-14T09:38:17;98434.13;;;0.16;59.88
65534;BME280;53640;55.838;37.184;2023-02-14T09:47:16;98436.22;;;-0.10;57.60
65534;BME280;53640;55.838;37.184;2023-02-14T09:49:44;98485.66;;;0.23;58.27
65534;BME280;53640;55.838;37.184;2023-02-14T09:52:14;98485.94;;;0.28;57.80
65534;BME280;53640;55.838;37.184;2023-02-14T09:54:43;98491.28;;;0.28;56.56
65534;BME280;53640;55.838;37.184;2023-02-14T10:02:42;98508.75;;;0.62;57.30
65534;BME280;53640;55.838;37.184;2023-02-14T10:10:40;98522.53;;;0.66;57.07
65534;BME280;53640;55.838;37.184;2023-02-14T10:13:29;98530.34;;;0.67;57.79
65534;BME280;53640;55.838;37.184;2023-02-14T10:16:07;98498.34;;;0.44;57.51
65534;BME280;53640;55.838;37.184;2023-02-14T10:19:02;98531.34;;;0.66;57.08
65534;BME280;53640;55.838;37.184;2023-02-14T10:21:40;98504.38;;;0.38;56.46
65534;BME280;53640;55.838;37.184;2023-02-14T10:26:53;98560.22;;;0.54;58.94
65534;BME280;53640;55.838;37.184;2023-02-14T10:29:23;98536.47;;;0.36;60.09
65534;BME280;53640;55.838;37.184;2023-02-14T10:32:01;98566.38;;;0.55;57.10
65534;BME280;53640;55.838;37.184;2023-02-14T10:34:34;98510.28;;;0.17;57.66
65534;BME280;53640;55.838;37.184;2023-02-14T10:40:01;98570.06;;;0.46;57.79
65534;BME280;53640;55.838;37.184;2023-02-14T10:54:33;98565.28;;;0.33;57.14
65534;BME280;53640;55.838;37.184;2023-02-14T10:57:28;98542.53;;;0.22;58.70
65534;BME280;53640;55.838;37.184;2023-02-14T11:00:02;98484.44;;;-0.14;58.45
65534;BME280;53640;55.838;37.184;2023-02-14T11:02:43;98560.94;;;0.40;57.78
65534;BME280;53640;55.838;37.184;2023-02-14T11:05:25;98577.06;;;0.47;59.09
65534;BME280;53640;55.838;37.184;2023-02-14T11:07:53;98546.50;;;0.34;60.40
65534;BME280;53640;55.838;37.184;2023-02-14T11:10:29;98591.97;;;0.56;58.13
65534;BME280;53640;55.838;37.184;2023-02-14T11:12:56;98558.91;;;0.50;59.98
65534;BME280;53640;55.838;37.184;2023-02-14T11:15:32;98584.94;;;0.71;60.02
65534;BME280;53640;55.838;37.184;2023-02-14T11:18:27;98601.69;;;0.88;57.95
65534;BME280;53640;55.838;37.184;2023-02-14T11:21:18;98603.16;;;0.99;59.30
65534;BME280;53640;55.838;37.184;2023-02-14T11:23:49;98604.28;;;1.04;59.58
65534;BME280;53640;55.838;37.184;2023-02-14T11:26:32;98597.47;;;1.02;57.63
65534;BME280;53640;55.838;37.184;2023-02-14T11:29:02;98542.28;;;0.79;58.95
65534;BME280;53640;55.838;37.184;2023-02-14T11:31:43;98551.59;;;0.83;58.37
65534;BME280;53640;55.838;37.184;2023-02-14T11:35:05;98550.22;;;0.88;53.67
65534;BME280;53640;55.838;37.184;2023-02-14T11:37:51;98545.88;;;0.87;56.65
65534;BME280;53640;55.838;37.184;2023-02-14T11:40:44;98534.41;;;0.86;57.76
65534;BME280;53640;55.838;37.184;2023-02-14T11:45:44;98613.63;;;1.54;60.00
65534;BME280;53640;55.838;37.184;2023-02-14T11:48:24;98560.06;;;1.79;60.29
65534;BME280;53640;55.838;37.184;2023-02-14T11:51:07;98535.63;;;2.35;64.32
65534;BME280;53640;55.838;37.184;2023-02-14T11:53:49;98630.13;;;3.65;67.46
65534;BME280;53640;55.838;37.184;2023-02-14T11:56:18;98535.13;;;3.83;61.96
65534;BME280;53640;55.838;37.184;2023-02-14T11:58:57;98562.03;;;4.72;66.62
65534;BME280;53640;55.838;37.184;2023-02-14T12:01:30;98611.22;;;5.47;67.51
65534;BME280;53640;55.838;37.184;2023-02-14T12:04:18;98636.28;;;6.21;60.47
65534;BME280;53640;55.838;37.184;2023-02-14T12:07:23;98594.97;;;5.88;54.10
65534;BME280;53640;55.838;37.184;2023-02-14T12:16:01;98640.09;;;5.45;48.27
65534;BME280;53640;55.838;37.184;2023-02-14T12:22:03;98632.50;;;4.59;48.61
65534;BME280;53640;55.838;37.184;2023-02-14T12:25:26;98635.75;;;3.98;48.01
65534;BME280;53640;55.838;37.184;2023-02-14T12:28:10;98674.22;;;3.69;48.77
65534;BME280;53640;55.838;37.184;2023-02-14T12:30:38;98673.66;;;3.38;50.31
65534;BME280;53640;55.838;37.184;2023-02-14T12:33:18;98666.50;;;3.09;50.26
65534;BME280;53640;55.838;37.184;2023-02-14T12:36:03;98696.53;;;3.25;51.98
65534;BME280;53640;55.838;37.184;2023-02-14T12:39:15;98697.72;;;3.38;52.04
65534;BME280;53640;55.838;37.184;2023-02-14T12:42:11;98655.34;;;3.05;52.34
65534;BME280;53640;55.838;37.184;2023-02-14T12:50:24;98705.09;;;3.36;53.74
65534;BME280;53640;55.838;37.184;2023-02-14T12:58:39;98704.47;;;2.74;53.47
65534;BME280;53640;55.838;37.184;2023-02-14T13:07:36;98743.25;;;2.33;51.41
65534;BME280;53640;55.838;37.184;2023-02-14T13:16:06;98696.38;;;1.38;54.16
65534;BME280;53640;55.838;37.184;2023-02-14T13:18:52;98755.16;;;1.53;53.78
65534;BME280;53640;55.838;37.184;2023-02-14T13:21:33;98754.38;;;1.44;55.15
65534;BME280;53640;55.838;37.184;2023-02-14T13:24:17;98710.72;;;1.06;55.69
65534;BME280;53640;55.838;37.184;2023-02-14T13:26:56;98779.88;;;1.39;56.63
65534;BME280;53640;55.838;37.184;2023-02-14T13:29:40;98742.03;;;1.04;56.35
65534;BME280;53640;55.838;37.184;2023-02-14T13:32:12;98678.53;;;0.52;56.49
65534;BME280;53640;55.838;37.184;2023-02-14T13:34:45;98676.44;;;0.31;56.28
65534;BME280;53640;55.838;37.184;2023-02-14T13:37:24;98802.97;;;1.07;56.32
65534;BME280;53640;55.838;37.184;2023-02-14T13:40:05;98805.81;;;0.97;57.04
65534;BME280;53640;55.838;37.184;2023-02-14T13:42:56;98762.06;;;0.59;57.89
65534;BME280;53640;55.838;37.184;2023-02-14T13:48:14;98733.47;;;0.28;58.76
65534;BME280;53640;55.838;37.184;2023-02-14T13:51:01;98836.66;;;0.83;58.39
65534;BME280;53640;55.838;37.184;2023-02-14T13:53:42;98818.31;;;0.64;58.23
65534;BME280;53640;55.838;37.184;2023-02-14T13:58:57;98846.78;;;0.64;57.42
65534;BME280;53640;55.838;37.184;2023-02-14T14:17:38;98843.25;;;0.14;58.33
65534;BME280;53640;55.838;37.184;2023-02-14T14:20:37;98882.38;;;0.30;58.61
65534;BME280;53640;55.838;37.184;2023-02-14T14:23:27;98897.50;;;0.29;59.90
65534;BME280;53640;55.838;37.184;2023-02-14T14:25:54;98888.38;;;0.24;60.10
65534;BME280;53640;55.838;37.184;2023-02-14T14:28:24;98891.34;;;0.21;60.62
65534;BME280;53640;55.838;37.184;2023-02-14T14:30:51;98889.31;;;0.15;60.50
65534;BME280;53640;55.838;37.184;2023-02-14T14:33:25;98914.28;;;0.22;58.60
65534;BME280;53640;55.838;37.184;2023-02-14T14:38:25;98848.59;;;-0.37;58.45
65534;BME280;53640;55.838;37.184;2023-02-14T14:40:52;98898.25;;;-0.11;59.26
65534;BME280;53640;55.838;37.184;2023-02-14T14:43:34;98919.06;;;0.02;58.46
65534;BME280;53640;55.838;37.184;2023-02-14T14:46:02;98933.50;;;-0.01;59.75
65534;BME280;53640;55.838;37.184;2023-02-14T14:48:36;98870.66;;;-0.44;58.14
65534;BME280;53640;55.838;37.184;2023-02-14T14:51:05;98927.94;;;-0.24;59.00
65534;BME280;53640;55.838;37.184;2023-02-14T14:53:45;98928.94;;;-0.25;58.43
65534;BME280;53640;55.838;37.184;2023-02-14T14:56:24;98851.19;;;-0.79;58.49
65534;BME280;53640;55.838;37.184;2023-02-14T14:58:53;98942.19;;;-0.33;57.32
65534;BME280;53640;55.838;37.184;2023-02-14T15:01:36;98927.81;;;-0.48;57.18
65534;BME280;53640;55.838;37.184;2023-02-14T15:04:18;98909.78;;;-0.63;57.86
65534;BME280;53640;55.838;37.184;2023-02-14T15:06:50;98901.34;;;-0.84;56.98
65534;BME280;53640;55.838;37.184;2023-02-14T15:09:22;98958.38;;;-0.52;57.45
65534;BME280;53640;55.838;37.184;2023-02-14T15:11:51;98946.00;;;-0.62;58.19
65534;BME280;53640;55.838;37.184;2023-02-14T15:14:40;98971.78;;;-0.54;58.96
65534;BME280;53640;55.838;37.184;2023-02-14T15:17:17;98974.31;;;-0.52;59.29
65534;BME280;53640;55.838;37.184;2023-02-14T15:19:52;98974.44;;;-0.54;60.02
65534;BME280;53640;55.838;37.184;2023-02-14T15:22:51;98973.97;;;-0.49;59.06
65534;BME280;53640;55.838;37.184;2023-02-14T15:25:58;98973.16;;;-0.50;58.82
65534;BME280;53640;55.838;37.184;2023-02-14T15:28:57;98793.47;;;-1.73;58.59
65534;BME280;53640;55.838;37.184;2023-02-14T15:32:02;98841.06;;;-1.53;58.46
65534;BME280;53640;55.838;37.184;2023-02-14T15:35:04;98917.53;;;-1.13;58.50
65534;BME280;53640;55.838;37.184;2023-02-14T15:38:14;98852.44;;;-1.79;59.69
65534;BME280;53640;55.838;37.184;2023-02-14T15:45:20;98841.66;;;-1.77;60.61
65534;BME280;53640;55.838;37.184;2023-02-14T15:52:27;99032.59;;;-0.77;59.44
65534;BME280;53640;55.838;37.184;2023-02-14T15:54:53;98963.78;;;-1.24;59.58